createdAt,value
2018-03-15T00:01:35.730Z,15.67
2018-03-15T00:06:37.103Z,11.30
2018-03-15T00:11:38.519Z,12.07
2018-03-15T00:16:39.912Z,10.30
2018-03-15T00:21:41.292Z,11.43
2018-03-15T00:26:42.655Z,11.37
2018-03-15T00:31:43.987Z,11.30
2018-03-15T00:36:45.350Z,11.60
2018-03-15T00:41:46.702Z,10.90
2018-03-15T00:46:48.036Z,15.70
2018-03-15T00:51:49.457Z,22.47
2018-03-15T00:56:50.842Z,14.57
2018-03-15T01:01:52.262Z,10.93
2018-03-15T01:06:53.628Z,13.27
2018-03-15T01:11:55.093Z,10.67
2018-03-15T01:16:56.485Z,15.10
2018-03-15T01:21:57.917Z,13.17
2018-03-15T01:26:59.279Z,16.20
2018-03-15T01:32:00.662Z,14.83
2018-03-15T01:37:02.017Z,15.20
2018-03-15T01:42:03.427Z,12.40
2018-03-15T01:47:04.829Z,13.97
2018-03-15T01:52:06.202Z,21.10
2018-03-15T01:57:07.595Z,12.43
2018-03-15T02:02:08.953Z,17.30
2018-03-15T02:07:10.325Z,22.27
2018-03-15T02:12:11.664Z,18.77
2018-03-15T02:17:13.086Z,13.47
2018-03-15T02:22:14.444Z,12.40
2018-03-15T02:27:15.882Z,16.87
2018-03-15T02:32:18.525Z,15.00
2018-03-15T02:37:19.916Z,13.27
2018-03-15T02:42:21.250Z,13.73
2018-03-15T02:47:22.620Z,15.67
2018-03-15T02:52:24.042Z,18.40
2018-03-15T02:57:25.390Z,17.20
2018-03-15T03:02:26.732Z,17.40
2018-03-15T03:07:28.117Z,22.30
2018-03-15T03:12:29.487Z,24.50
2018-03-15T03:17:30.874Z,24.97
2018-03-15T03:22:32.243Z,27.27
2018-03-15T03:27:33.639Z,21.87
2018-03-15T03:32:35.086Z,23.70
2018-03-15T03:37:36.495Z,26.23
2018-03-15T03:42:37.926Z,24.47
2018-03-15T03:47:39.368Z,24.30
2018-03-15T03:52:40.718Z,30.70
2018-03-15T03:57:42.075Z,26.83
2018-03-15T04:02:44.178Z,26.33
2018-03-15T04:07:46.283Z,28.60
2018-03-15T04:12:47.644Z,28.67
2018-03-15T04:17:49.009Z,34.47
2018-03-15T04:22:50.354Z,40.07
2018-03-15T04:27:52.481Z,42.50
2018-03-15T04:32:54.148Z,43.60
2018-03-15T04:37:55.492Z,54.50
2018-03-15T04:42:56.843Z,47.70
2018-03-15T04:47:58.916Z,58.30
2018-03-15T04:53:00.268Z,53.33
2018-03-15T04:58:01.620Z,62.40
2018-03-15T05:03:03.715Z,54.87
2018-03-15T05:08:05.176Z,55.60
2018-03-15T05:13:07.482Z,53.13
2018-03-15T05:18:08.948Z,52.13
2018-03-15T05:23:10.308Z,52.57
2018-03-15T05:28:11.660Z,58.67
2018-03-15T05:33:13.053Z,49.80
2018-03-15T05:38:14.382Z,58.13
2018-03-15T05:43:15.717Z,56.00
2018-03-15T05:48:17.099Z,54.30
2018-03-15T05:53:18.426Z,52.23
2018-03-15T05:58:19.763Z,52.83
2018-03-15T06:03:21.096Z,50.93
2018-03-15T06:08:22.428Z,44.20
2018-03-15T06:13:23.804Z,46.60
2018-03-15T06:18:25.160Z,42.30
2018-03-15T06:23:26.492Z,33.47
2018-03-15T06:28:28.621Z,34.43
2018-03-15T06:33:29.972Z,34.60
2018-03-15T06:38:31.374Z,29.83
2018-03-15T06:43:32.723Z,31.97
2018-03-15T06:48:34.104Z,28.93
2018-03-15T06:53:35.449Z,33.60
2018-03-15T06:58:37.202Z,36.77
2018-03-15T07:03:38.552Z,35.17
2018-03-15T07:08:39.938Z,42.40
2018-03-15T07:13:42.025Z,38.37
2018-03-15T07:18:43.391Z,41.33
2018-03-15T07:23:44.752Z,38.43
2018-03-15T07:28:46.090Z,32.73
2018-03-15T07:33:47.426Z,30.53
2018-03-15T07:38:48.761Z,34.60
2018-03-15T07:43:50.088Z,35.20
2018-03-15T07:48:51.424Z,33.10
2018-03-15T07:53:52.760Z,29.83
2018-03-15T07:58:54.833Z,31.53
2018-03-15T08:03:56.207Z,27.53
2018-03-15T08:08:57.585Z,29.10
2018-03-15T08:13:58.948Z,22.27
2018-03-15T08:19:00.280Z,25.00
2018-03-15T08:24:01.627Z,26.40
2018-03-15T08:29:02.999Z,23.80
2018-03-15T08:34:05.096Z,28.90
2018-03-15T08:39:07.324Z,23.50
2018-03-15T08:44:09.409Z,27.10
2018-03-15T08:49:10.803Z,19.80
2018-03-15T08:54:12.160Z,22.67
2018-03-15T08:59:13.558Z,23.10
2018-03-15T09:04:14.949Z,19.13
2018-03-15T09:09:16.268Z,26.10
2018-03-15T09:14:18.371Z,34.43
2018-03-15T09:19:19.711Z,25.07
2018-03-15T09:24:21.056Z,25.90
2018-03-15T09:29:23.140Z,26.10
2018-03-15T09:34:24.545Z,23.33
2018-03-15T09:39:25.845Z,22.50
2018-03-15T09:44:27.932Z,23.50
2018-03-15T09:49:30.019Z,23.27
2018-03-15T09:54:31.354Z,23.33
2018-03-15T09:59:32.732Z,26.47
2018-03-15T10:04:34.068Z,22.13
2018-03-15T10:09:35.456Z,24.60
2018-03-15T10:14:36.866Z,21.63
2018-03-15T10:19:38.220Z,21.70
2018-03-15T10:24:39.621Z,19.30
2018-03-15T10:29:40.981Z,22.10
2018-03-15T10:34:42.451Z,22.73
2018-03-15T10:39:43.794Z,22.90
2018-03-15T10:44:45.160Z,20.40
2018-03-15T10:49:46.572Z,23.47
2018-03-15T10:54:47.883Z,22.30
2018-03-15T10:59:49.304Z,22.07
2018-03-15T11:04:56.623Z,19.53
2018-03-15T11:09:57.964Z,28.30
2018-03-15T11:14:59.283Z,21.83
2018-03-15T11:20:00.597Z,22.60
2018-03-15T11:25:01.964Z,26.23
2018-03-15T11:30:03.347Z,21.27
2018-03-15T11:35:04.671Z,22.40
2018-03-15T11:40:06.763Z,23.23
2018-03-15T11:45:08.079Z,24.30
2018-03-15T11:50:10.139Z,25.77
2018-03-15T11:55:11.472Z,22.77
2018-03-15T12:00:13.555Z,26.80
2018-03-15T12:05:14.880Z,26.73
2018-03-15T12:10:16.935Z,29.73
2018-03-15T12:15:18.256Z,29.10
2018-03-15T12:20:20.381Z,28.17
2018-03-15T12:25:22.427Z,27.13
2018-03-15T12:30:23.757Z,25.27
2018-03-15T12:35:25.072Z,28.93
2018-03-15T12:40:27.140Z,27.90
2018-03-15T12:45:28.462Z,28.70
2018-03-15T12:50:30.539Z,28.07
2018-03-15T12:55:31.808Z,27.37
2018-03-15T13:00:33.108Z,29.00
2018-03-15T13:05:34.400Z,28.00
2018-03-15T13:10:35.708Z,25.13
2018-03-15T13:15:37.004Z,28.70
2018-03-15T13:20:39.061Z,29.50
2018-03-15T13:25:40.358Z,26.90
2018-03-15T13:30:41.678Z,28.43
2018-03-15T13:35:42.995Z,35.23
2018-03-15T13:40:44.302Z,32.13
2018-03-15T13:45:45.608Z,29.10
2018-03-15T13:50:46.919Z,26.90
2018-03-15T13:55:48.208Z,26.90
2018-03-15T14:00:49.516Z,28.70
2018-03-15T14:05:51.591Z,29.00
2018-03-15T14:10:52.890Z,30.80
2018-03-15T14:15:54.191Z,31.33
2018-03-15T14:20:55.488Z,28.93
2018-03-15T14:25:56.792Z,28.93
2018-03-15T14:30:58.823Z,31.97
2018-03-15T14:36:00.140Z,30.83
2018-03-15T14:41:01.467Z,34.07
2018-03-15T14:46:03.524Z,30.03
2018-03-15T14:51:04.860Z,31.13
2018-03-15T14:56:06.892Z,30.23
2018-03-15T15:01:08.192Z,31.50
2018-03-15T15:06:09.543Z,35.40
2018-03-15T15:11:11.619Z,34.20
2018-03-15T15:16:13.025Z,31.23
2018-03-15T15:21:14.286Z,30.97
2018-03-15T15:26:15.620Z,25.13
2018-03-15T15:31:17.686Z,30.10
2018-03-15T15:36:19.001Z,29.70
2018-03-15T15:41:20.319Z,31.50
2018-03-15T15:46:22.356Z,31.40
2018-03-15T15:51:23.675Z,28.77
2018-03-15T15:56:25.084Z,29.33
2018-03-15T16:01:27.480Z,30.20
2018-03-15T16:06:28.790Z,36.33
2018-03-15T16:11:30.135Z,26.83
2018-03-15T16:16:31.472Z,26.77
2018-03-15T16:21:32.933Z,28.30
2018-03-15T16:26:34.236Z,27.47
2018-03-15T16:31:35.532Z,28.27
2018-03-15T16:36:36.907Z,33.23
2018-03-15T16:41:38.224Z,25.00
2018-03-15T16:46:39.591Z,35.97
2018-03-15T16:51:40.952Z,26.00
2018-03-15T16:56:42.327Z,25.40
2018-03-15T17:01:44.372Z,25.97
2018-03-15T17:06:45.668Z,28.13
2018-03-15T17:11:46.973Z,27.10
2018-03-15T17:16:48.284Z,27.47
2018-03-15T17:21:50.322Z,34.10
2018-03-15T17:26:51.628Z,26.73
2018-03-15T17:31:52.946Z,25.50
2018-03-15T17:36:54.250Z,42.33
2018-03-15T17:41:55.540Z,31.37
2018-03-15T17:46:56.827Z,31.87
2018-03-15T17:51:58.931Z,30.13
2018-03-15T17:57:00.228Z,30.77
2018-03-15T18:02:02.303Z,36.33
2018-03-15T18:07:03.628Z,39.40
2018-03-15T18:12:05.663Z,38.13
2018-03-15T18:17:07.840Z,34.83
2018-03-15T18:22:09.955Z,88.10
2018-03-15T18:27:12.009Z,35.90
2018-03-15T18:32:13.373Z,42.30
2018-03-15T18:37:14.724Z,49.87
2018-03-15T18:42:16.024Z,55.07
2018-03-15T18:47:18.158Z,46.20
2018-03-15T18:52:19.473Z,42.67
2018-03-15T18:57:21.814Z,47.70
2018-03-15T19:02:23.195Z,47.93
2018-03-15T19:07:24.516Z,32.90
2018-03-15T19:12:27.561Z,35.17
2018-03-15T19:17:28.904Z,37.40
2018-03-15T19:22:30.238Z,30.30
2018-03-15T19:27:31.540Z,47.47
2018-03-15T19:32:32.831Z,32.83
2018-03-15T19:37:34.144Z,32.90
2018-03-15T19:42:35.511Z,33.90
2018-03-15T19:47:36.849Z,29.63
2018-03-15T19:52:38.165Z,32.27
2018-03-15T19:57:40.220Z,33.10
2018-03-15T20:02:41.540Z,27.57
2018-03-15T20:07:42.967Z,33.90
2018-03-15T20:12:44.337Z,34.40
2018-03-15T20:17:45.593Z,33.67
2018-03-15T20:28:36.367Z,32.87
2018-03-15T20:33:43.835Z,37.10
2018-03-15T20:38:45.324Z,39.17
2018-03-15T20:43:46.630Z,37.30
2018-03-15T20:48:54.001Z,39.60
2018-03-15T20:53:55.543Z,52.13
2018-03-15T20:58:56.847Z,40.00
2018-03-15T21:03:58.341Z,34.53
2018-03-15T21:09:01.067Z,44.83
2018-03-15T21:14:03.416Z,34.40
2018-03-15T21:19:04.961Z,39.20
2018-03-15T21:24:07.456Z,50.50
2018-03-15T21:29:09.567Z,39.93
2018-03-15T21:34:11.911Z,47.00
2018-03-15T21:39:13.671Z,47.47
2018-03-15T21:44:15.304Z,47.33
2018-03-15T21:49:17.183Z,49.80
2018-03-15T21:54:18.516Z,52.30
2018-03-15T21:59:20.827Z,52.30
2018-03-15T22:04:22.933Z,55.23
2018-03-15T22:09:24.576Z,60.80
2018-03-15T22:14:26.043Z,58.43
2018-03-15T22:19:27.465Z,56.03
2018-03-15T22:24:29.243Z,62.57
2018-03-15T22:29:31.384Z,56.43
2018-03-15T22:34:32.753Z,62.40
2018-03-15T22:39:34.740Z,52.80
2018-03-15T22:44:37.016Z,58.67
2018-03-15T22:49:38.511Z,66.57
2018-03-15T22:54:40.504Z,68.47
2018-03-15T22:59:42.721Z,63.17
2018-03-15T23:04:44.398Z,67.63
2018-03-15T23:09:45.917Z,73.50
2018-03-15T23:14:48.008Z,71.03
2018-03-15T23:19:49.351Z,64.47
2018-03-15T23:24:50.719Z,77.27
2018-03-15T23:29:52.748Z,64.03
2018-03-15T23:34:54.068Z,79.97
2018-03-15T23:39:55.369Z,58.10
2018-03-15T23:44:56.668Z,65.73
2018-03-15T23:49:57.964Z,64.83
2018-03-15T23:54:59.308Z,58.53
